Time;durP1;ratioP1;P1;durP2;ratioP2;P2;SDS_P1;SDS_P2;PMS_P1;PMS_P2;Temp;Humidity;BMP_temperature;BMP_pressure;BME280_temperature;BME280_humidity;BME280_pressure;Samples;Min_cycle;Max_cycle;Signal;HPM_P1;HPM_P2
2021/03/31 00:01:26;;;;;;;39.28;24.98;;;5.70;99.90;;;;;;5053924;28;20371;-78
2021/03/31 00:03:52;;;;;;;43.92;26.92;;;5.60;99.90;;;;;;5053857;28;20017;-77
2021/03/31 00:06:18;;;;;;;47.30;27.17;;;5.60;99.90;;;;;;5053701;28;20072;-77
2021/03/31 00:08:44;;;;;;;80.78;32.97;;;5.60;99.90;;;;;;5053526;28;20029;-76
2021/03/31 00:11:10;;;;;;;56.72;31.95;;;5.60;99.90;;;;;;5055072;28;20029;-77
2021/03/31 00:13:35;;;;;;;55.72;32.70;;;5.60;99.90;;;;;;5053756;28;20116;-77
2021/03/31 00:16:02;;;;;;;59.40;32.40;;;5.60;99.90;;;;;;5053311;28;20494;-77
2021/03/31 00:18:27;;;;;;;67.00;33.33;;;5.60;99.90;;;;;;5053376;28;20116;-77
2021/03/31 00:20:53;;;;;;;65.88;34.15;;;5.50;99.90;;;;;;5052715;28;20568;-77
2021/03/31 00:23:24;;;;;;;60.97;32.50;;;5.50;99.90;;;;;;5054354;28;20029;-78
2021/03/31 00:25:50;;;;;;;59.55;31.13;;;5.40;99.90;;;;;;5054708;28;20091;-76
2021/03/31 00:28:17;;;;;;;58.00;30.25;;;5.50;99.90;;;;;;5053328;28;20025;-78
2021/03/31 00:30:43;;;;;;;65.57;33.15;;;5.40;99.90;;;;;;5053373;28;20017;-77
2021/03/31 00:33:09;;;;;;;67.25;36.00;;;5.40;99.90;;;;;;5053285;28;20020;-77
2021/03/31 00:35:36;;;;;;;66.30;32.17;;;5.30;99.90;;;;;;5054548;28;20029;-77
2021/03/31 00:38:03;;;;;;;56.80;32.92;;;5.30;99.90;;;;;;5052978;28;20371;-77
2021/03/31 00:40:50;;;;;;;59.25;30.83;;;5.30;99.90;;;;;;5033176;28;20390;-77
2021/03/31 00:43:16;;;;;;;51.42;29.17;;;5.30;99.90;;;;;;5034143;28;20034;-77
2021/03/31 00:45:42;;;;;;;50.65;29.23;;;5.20;99.90;;;;;;5033188;28;20063;-77
2021/03/31 00:48:16;;;;;;;54.83;30.15;;;5.20;99.90;;;;;;5033059;28;20048;-77
2021/03/31 00:50:54;;;;;;;44.10;28.05;;;5.20;99.90;;;;;;5034387;28;20537;-77
2021/03/31 00:53:26;;;;;;;47.22;27.38;;;5.20;99.90;;;;;;5034319;28;20038;-77
2021/03/31 00:55:52;;;;;;;51.40;29.35;;;5.20;99.90;;;;;;5033044;28;20026;-77
2021/03/31 00:58:18;;;;;;;66.65;35.00;;;5.20;99.90;;;;;;5032900;28;20103;-77
2021/03/31 01:00:44;;;;;;;63.22;35.45;;;5.20;99.90;;;;;;5032803;28;20511;-77
2021/03/31 01:03:10;;;;;;;75.65;38.47;;;5.10;99.90;;;;;;5032832;28;20030;-78
2021/03/31 01:05:36;;;;;;;84.05;40.97;;;5.10;99.90;;;;;;5032744;28;20051;-77
2021/03/31 01:08:02;;;;;;;82.40;38.28;;;5.10;99.90;;;;;;5033995;28;20036;-78
2021/03/31 01:10:32;;;;;;;86.40;39.47;;;5.10;99.90;;;;;;5052266;28;20035;-77
2021/03/31 01:13:27;;;;;;;82.88;38.28;;;5.10;99.90;;;;;;5052661;28;20021;-77
2021/03/31 01:16:21;;;;;;;81.78;38.75;;;5.10;99.90;;;;;;5052447;28;20025;-77
2021/03/31 01:18:57;;;;;;;64.63;34.65;;;5.00;99.90;;;;;;5052463;28;20028;-76
2021/03/31 01:21:59;;;;;;;77.07;38.28;;;5.00;99.90;;;;;;5052444;28;20013;-78
2021/03/31 01:24:47;;;;;;;75.43;37.22;;;5.10;99.90;;;;;;5052107;28;20021;-77
2021/03/31 01:27:18;;;;;;;74.05;37.83;;;4.90;99.90;;;;;;5052203;28;20478;-78
2021/03/31 01:29:58;;;;;;;70.55;38.05;;;4.90;99.90;;;;;;5051859;28;20024;-78
2021/03/31 01:33:01;;;;;;;70.18;36.35;;;4.90;99.90;;;;;;5052078;28;20439;-78
2021/03/31 01:35:27;;;;;;;84.28;38.65;;;4.90;99.90;;;;;;5052062;28;20544;-77
2021/03/31 01:37:56;;;;;;;79.07;38.47;;;4.90;99.90;;;;;;5052112;28;20032;-78
2021/03/31 01:40:25;;;;;;;73.38;36.25;;;4.90;99.90;;;;;;5051844;28;20102;-78
2021/03/31 01:42:55;;;;;;;62.78;31.92;;;4.80;99.90;;;;;;5052054;28;20059;-77
2021/03/31 01:45:26;;;;;;;90.43;34.90;;;4.70;99.90;;;;;;5051910;28;20029;-77
2021/03/31 01:47:53;;;;;;;88.85;34.35;;;4.70;99.90;;;;;;5051865;28;20045;-77
2021/03/31 01:50:21;;;;;;;63.15;30.92;;;4.70;99.90;;;;;;5051783;28;20502;-77
2021/03/31 01:52:47;;;;;;;79.47;33.42;;;4.60;99.90;;;;;;5051901;28;20104;-78
2021/03/31 01:55:15;;;;;;;71.78;36.47;;;4.60;99.90;;;;;;5051715;28;20116;-77
2021/03/31 01:57:42;;;;;;;74.05;34.22;;;4.60;99.90;;;;;;5051532;28;20021;-77
2021/03/31 02:00:14;;;;;;;74.97;34.60;;;4.60;99.90;;;;;;5051667;28;20438;-77
2021/03/31 02:02:43;;;;;;;65.37;34.53;;;4.50;99.90;;;;;;5051591;28;20402;-77
2021/03/31 02:05:11;;;;;;;84.40;37.25;;;4.50;99.90;;;;;;5051476;28;20264;-78
2021/03/31 02:07:39;;;;;;;105.55;55.65;;;4.50;99.90;;;;;;5051692;28;20402;-77
2021/03/31 02:10:08;;;;;;;109.93;56.90;;;4.60;99.90;;;;;;5051552;28;20090;-77
2021/03/31 02:12:35;;;;;;;111.72;58.53;;;4.50;99.90;;;;;;5051547;28;20035;-77
2021/03/31 02:15:02;;;;;;;104.43;53.75;;;4.50;99.90;;;;;;5051549;28;20056;-78
2021/03/31 02:17:29;;;;;;;128.52;64.95;;;4.50;99.90;;;;;;5050878;28;20427;-78
2021/03/31 02:19:55;;;;;;;137.93;69.85;;;4.50;99.90;;;;;;5052786;28;20033;-78
2021/03/31 02:22:23;;;;;;;295.65;130.82;;;4.50;99.90;;;;;;5051438;28;20120;-78
2021/03/31 02:24:49;;;;;;;260.85;112.32;;;4.50;99.90;;;;;;5051333;28;20036;-78
2021/03/31 02:27:15;;;;;;;268.00;120.82;;;4.50;99.90;;;;;;5051330;28;20082;-78
2021/03/31 02:29:45;;;;;;;274.17;137.00;;;4.40;99.90;;;;;;5051333;28;20494;-78
2021/03/31 02:32:14;;;;;;;278.13;145.77;;;4.40;99.90;;;;;;5052543;28;20493;-78
2021/03/31 02:34:41;;;;;;;316.55;144.32;;;4.40;99.90;;;;;;5052671;28;20406;-77
2021/03/31 02:37:06;;;;;;;221.13;118.35;;;4.40;99.90;;;;;;5051307;28;20561;-78
2021/03/31 02:39:41;;;;;;;193.73;98.20;;;4.40;99.90;;;;;;5051279;28;20057;-78
2021/03/31 02:42:09;;;;;;;171.80;90.43;;;4.30;99.90;;;;;;5051258;28;20042;-78
2021/03/31 02:44:40;;;;;;;165.88;79.05;;;4.30;99.90;;;;;;5055308;28;20025;-78
2021/03/31 02:47:09;;;;;;;149.38;63.20;;;4.20;99.90;;;;;;5054585;28;20170;-77
2021/03/31 02:49:39;;;;;;;125.68;64.47;;;4.30;99.90;;;;;;5055588;28;20382;-77
2021/03/31 02:52:06;;;;;;;143.43;72.43;;;4.30;99.90;;;;;;5055285;28;20021;-77
2021/03/31 02:54:32;;;;;;;139.50;66.53;;;4.30;99.90;;;;;;5055204;28;20016;-77
2021/03/31 02:56:58;;;;;;;120.85;65.45;;;4.30;99.90;;;;;;5055229;28;20385;-77
2021/03/31 02:59:24;;;;;;;126.43;67.72;;;4.30;99.90;;;;;;5054977;28;20445;-77
2021/03/31 03:01:51;;;;;;;113.35;59.33;;;4.30;99.90;;;;;;5056106;28;20582;-77
2021/03/31 03:04:17;;;;;;;152.60;68.60;;;4.30;99.90;;;;;;5054706;28;20082;-77
2021/03/31 03:06:43;;;;;;;130.48;67.88;;;4.20;99.90;;;;;;5056183;28;20132;-77
2021/03/31 03:09:09;;;;;;;185.85;75.82;;;4.20;99.90;;;;;;5054716;28;20117;-77
2021/03/31 03:11:36;;;;;;;134.65;67.43;;;4.10;99.90;;;;;;5054846;28;20394;-77
2021/03/31 03:14:05;;;;;;;172.68;61.40;;;4.00;99.90;;;;;;5055934;28;20115;-76
2021/03/31 03:16:31;;;;;;;116.78;53.58;;;3.90;99.90;;;;;;5054468;28;20025;-76
2021/03/31 03:18:58;;;;;;;112.78;49.72;;;3.90;99.90;;;;;;5055984;28;20033;-77
2021/03/31 03:21:26;;;;;;;107.80;50.88;;;3.90;99.90;;;;;;5054639;28;20146;-77
2021/03/31 03:23:51;;;;;;;100.00;45.58;;;3.80;99.90;;;;;;5054501;28;20033;-77
2021/03/31 03:26:17;;;;;;;104.75;50.42;;;3.70;99.90;;;;;;5054498;28;20490;-77
2021/03/31 03:28:47;;;;;;;92.00;49.22;;;3.70;99.90;;;;;;5054501;28;20070;-77
2021/03/31 03:31:13;;;;;;;89.60;49.72;;;3.70;99.90;;;;;;5054499;28;20044;-78
2021/03/31 03:33:40;;;;;;;86.07;46.15;;;3.70;99.90;;;;;;5054450;28;20470;-77
2021/03/31 03:36:08;;;;;;;88.35;44.22;;;3.70;99.90;;;;;;5054348;28;20029;-77
2021/03/31 03:38:35;;;;;;;83.75;44.10;;;3.80;99.90;;;;;;5054283;28;20032;-77
2021/03/31 03:41:08;;;;;;;88.18;43.58;;;3.80;99.90;;;;;;5054200;28;20040;-76
2021/03/31 03:43:37;;;;;;;84.97;42.28;;;3.80;99.90;;;;;;5055569;28;20036;-77
2021/03/31 03:46:05;;;;;;;82.82;40.55;;;3.80;99.90;;;;;;5054066;28;20025;-76
2021/03/31 03:48:31;;;;;;;101.00;43.80;;;3.80;99.90;;;;;;5053986;28;20029;-77
2021/03/31 03:50:57;;;;;;;83.68;45.05;;;3.80;99.90;;;;;;5055397;28;20017;-77
2021/03/31 03:53:27;;;;;;;91.25;45.90;;;3.70;99.90;;;;;;5054067;28;20024;-77
2021/03/31 03:55:54;;;;;;;88.35;42.55;;;3.70;99.90;;;;;;5054118;28;20108;-77
2021/03/31 03:58:20;;;;;;;96.35;45.58;;;3.70;99.90;;;;;;5053921;28;20017;-77
2021/03/31 04:00:45;;;;;;;81.70;42.95;;;3.70;99.90;;;;;;5053654;28;20471;-77
2021/03/31 04:03:11;;;;;;;91.85;45.10;;;3.60;99.90;;;;;;5055010;28;20052;-77
2021/03/31 04:05:36;;;;;;;80.75;42.42;;;3.60;99.90;;;;;;5053849;28;20025;-77
2021/03/31 04:08:02;;;;;;;85.88;42.75;;;3.60;99.90;;;;;;5053736;28;20060;-77
2021/03/31 04:10:29;;;;;;;78.47;38.10;;;3.60;99.90;;;;;;5053899;28;20025;-77
2021/03/31 04:12:57;;;;;;;83.95;37.50;;;3.50;99.90;;;;;;5053791;28;20044;-77
2021/03/31 04:15:24;;;;;;;80.25;38.55;;;3.50;99.90;;;;;;5053577;28;20028;-76
2021/03/31 04:17:50;;;;;;;89.13;39.83;;;3.50;99.90;;;;;;5054694;28;20025;-77
2021/03/31 04:20:19;;;;;;;75.75;38.60;;;3.40;99.90;;;;;;5053425;28;20021;-77
2021/03/31 04:22:48;;;;;;;78.00;38.20;;;3.40;99.90;;;;;;5054856;28;20029;-77
2021/03/31 04:25:16;;;;;;;68.50;36.22;;;3.40;99.90;;;;;;5053376;28;20017;-77
2021/03/31 04:27:44;;;;;;;80.50;39.65;;;3.40;99.90;;;;;;5054720;28;20106;-77
2021/03/31 04:30:12;;;;;;;91.82;41.13;;;3.50;99.90;;;;;;5053364;28;20379;-77
2021/03/31 04:32:39;;;;;;;73.47;38.65;;;3.50;99.90;;;;;;5053352;28;20045;-77
2021/03/31 04:35:07;;;;;;;81.05;40.67;;;3.50;99.90;;;;;;5053267;28;20028;-77
2021/03/31 04:37:32;;;;;;;77.95;37.75;;;3.50;99.90;;;;;;5051668;28;20018;-77
2021/03/31 04:39:58;;;;;;;105.85;38.53;;;3.50;99.90;;;;;;5052960;28;20021;-77
2021/03/31 04:42:24;;;;;;;65.72;33.97;;;3.50;99.90;;;;;;5054179;28;20488;-77
2021/03/31 04:44:50;;;;;;;64.65;33.28;;;3.60;99.90;;;;;;5053168;28;20394;-77
2021/03/31 04:47:16;;;;;;;71.47;37.22;;;3.60;99.90;;;;;;5052643;28;20402;-77
2021/03/31 04:49:41;;;;;;;63.88;32.80;;;3.60;99.90;;;;;;5053008;28;20024;-78
2021/03/31 04:52:07;;;;;;;80.07;38.15;;;3.70;99.90;;;;;;5052621;28;20124;-77
2021/03/31 04:54:33;;;;;;;77.72;40.75;;;3.70;99.90;;;;;;5052904;28;20172;-77
2021/03/31 04:56:59;;;;;;;77.82;37.15;;;3.70;99.90;;;;;;5052911;28;20435;-77
2021/03/31 04:59:24;;;;;;;70.88;34.35;;;3.70;99.90;;;;;;5052794;28;20360;-77
2021/03/31 05:01:50;;;;;;;83.45;38.63;;;3.70;99.90;;;;;;5052900;28;20029;-78
2021/03/31 05:04:16;;;;;;;80.13;34.83;;;3.70;99.90;;;;;;5052683;28;20363;-77
2021/03/31 05:06:41;;;;;;;76.82;36.03;;;3.70;99.90;;;;;;5052183;28;20044;-77
2021/03/31 05:09:07;;;;;;;80.32;40.42;;;3.70;99.90;;;;;;5052931;28;20121;-76
2021/03/31 05:11:33;;;;;;;80.78;41.08;;;3.60;99.90;;;;;;5052680;28;20393;-77
2021/03/31 05:13:58;;;;;;;80.60;40.88;;;3.70;99.90;;;;;;5052655;28;20115;-77
2021/03/31 05:16:24;;;;;;;83.70;43.33;;;3.70;99.90;;;;;;5053527;28;20463;-78
2021/03/31 05:18:50;;;;;;;91.28;41.00;;;3.70;99.90;;;;;;5053883;28;20118;-77
2021/03/31 05:21:15;;;;;;;89.85;38.58;;;3.80;99.90;;;;;;5053675;28;20017;-77
2021/03/31 05:23:41;;;;;;;95.28;41.47;;;3.90;99.90;;;;;;5052460;28;20017;-77
2021/03/31 05:26:07;;;;;;;89.63;43.65;;;4.00;99.90;;;;;;5052233;28;20437;-77
2021/03/31 05:28:32;;;;;;;99.05;47.75;;;4.10;99.90;;;;;;5052340;28;20386;-77
2021/03/31 05:30:58;;;;;;;92.40;47.72;;;4.20;99.90;;;;;;5052240;28;20017;-76
2021/03/31 05:33:24;;;;;;;97.15;49.28;;;4.40;99.90;;;;;;5053379;28;20075;-76
2021/03/31 05:35:49;;;;;;;103.47;48.25;;;4.50;99.90;;;;;;5052194;28;20021;-77
2021/03/31 05:38:15;;;;;;;96.38;45.35;;;4.70;99.90;;;;;;5053393;28;20031;-77
2021/03/31 05:40:41;;;;;;;92.15;47.00;;;4.80;99.90;;;;;;5053345;28;20081;-77
2021/03/31 05:43:07;;;;;;;103.95;51.20;;;5.00;99.90;;;;;;5053260;28;20029;-77
2021/03/31 05:45:34;;;;;;;102.63;51.35;;;5.20;99.90;;;;;;5052905;28;20021;-77
2021/03/31 05:48:00;;;;;;;103.40;50.17;;;5.40;99.90;;;;;;5043164;28;20037;-77
2021/03/31 05:50:26;;;;;;;104.50;50.33;;;5.60;99.90;;;;;;5045216;28;20048;-77
2021/03/31 05:52:52;;;;;;;109.00;52.97;;;5.70;99.90;;;;;;5050742;28;20066;-78
2021/03/31 05:55:18;;;;;;;101.95;51.28;;;5.80;99.90;;;;;;5052764;28;20368;-77
2021/03/31 05:57:45;;;;;;;95.38;47.90;;;5.90;99.90;;;;;;5052408;28;20025;-78
2021/03/31 06:00:11;;;;;;;93.90;45.88;;;6.00;99.90;;;;;;5048814;28;20549;-76
2021/03/31 06:02:37;;;;;;;100.60;48.28;;;6.20;99.90;;;;;;5052875;28;20109;-78
2021/03/31 06:05:04;;;;;;;89.43;46.38;;;6.40;99.90;;;;;;5068228;28;20032;-77
2021/03/31 06:07:29;;;;;;;94.78;48.30;;;6.50;99.90;;;;;;5067972;28;20451;-77
2021/03/31 06:10:17;;;;;;;107.32;56.17;;;6.70;99.90;;;;;;5051382;28;20076;-77
2021/03/31 06:12:46;;;;;;;117.75;62.75;;;6.90;99.90;;;;;;5052436;28;20028;-77
2021/03/31 06:15:32;;;;;;;132.32;70.10;;;7.10;99.90;;;;;;5055398;28;20116;-77
2021/03/31 06:17:59;;;;;;;134.63;70.35;;;7.30;99.90;;;;;;5050302;28;20028;-77
2021/03/31 06:20:45;;;;;;;135.85;73.70;;;7.60;99.90;;;;;;5050020;28;20471;-77
2021/03/31 06:23:24;;;;;;;121.95;64.53;;;7.80;99.90;;;;;;5065733;28;20486;-78
2021/03/31 06:28:37;;;;;;;188.27;90.35;;;8.30;99.90;;;;;;5051596;28;20037;-78
2021/03/31 06:31:14;;;;;;;190.27;106.22;;;8.50;99.90;;;;;;5049421;28;20067;-77
2021/03/31 06:33:42;;;;;;;143.15;79.03;;;8.80;99.90;;;;;;5052843;28;20025;-77
2021/03/31 06:36:10;;;;;;;120.68;66.70;;;9.00;99.90;;;;;;5048800;28;20104;-78
2021/03/31 06:38:39;;;;;;;124.50;65.13;;;9.20;99.90;;;;;;5079003;28;20040;-77
2021/03/31 06:41:13;;;;;;;125.32;67.63;;;9.40;99.90;;;;;;5047544;28;20025;-78
2021/03/31 06:43:48;;;;;;;109.45;61.17;;;9.60;99.90;;;;;;5050282;28;20029;-81
2021/03/31 06:46:32;;;;;;;108.07;57.97;;;9.80;99.90;;;;;;5049184;28;20473;-80
2021/03/31 06:48:58;;;;;;;109.65;58.55;;;10.00;99.90;;;;;;5032374;28;20029;-80
2021/03/31 06:51:29;;;;;;;101.07;55.70;;;10.20;99.90;;;;;;5030922;28;20022;-80
2021/03/31 06:53:54;;;;;;;115.68;60.00;;;10.40;99.90;;;;;;5037986;28;20017;-80
2021/03/31 06:56:30;;;;;;;106.70;58.97;;;10.60;99.90;;;;;;5050915;28;20021;-79
2021/03/31 06:59:00;;;;;;;98.38;57.38;;;10.70;99.90;;;;;;5050526;28;20025;-84
2021/03/31 07:01:29;;;;;;;111.70;56.33;;;10.90;99.90;;;;;;5052156;28;20021;-81
2021/03/31 07:03:56;;;;;;;91.38;53.92;;;11.10;99.90;;;;;;5050249;28;20029;-81
2021/03/31 07:06:22;;;;;;;105.75;57.33;;;11.20;99.90;;;;;;5051720;28;20033;-80
2021/03/31 07:08:47;;;;;;;99.53;54.95;;;11.40;99.90;;;;;;5051593;28;20112;-79
2021/03/31 07:11:40;;;;;;;102.40;55.08;;;11.50;99.90;;;;;;5050781;28;20036;-79
2021/03/31 07:14:08;;;;;;;103.45;56.03;;;11.70;99.90;;;;;;5051637;28;20026;-79
2021/03/31 07:16:34;;;;;;;98.95;56.28;;;11.90;99.90;;;;;;5052007;28;20028;-81
2021/03/31 07:19:00;;;;;;;99.15;56.63;;;12.00;99.90;;;;;;5052066;28;20162;-80
2021/03/31 07:21:27;;;;;;;96.40;55.35;;;12.20;99.90;;;;;;5051901;28;20140;-83
2021/03/31 07:23:53;;;;;;;104.40;57.95;;;12.30;99.90;;;;;;5051743;28;20020;-81
2021/03/31 07:26:23;;;;;;;105.55;60.40;;;12.40;99.90;;;;;;5050598;28;20029;-82
2021/03/31 07:28:50;;;;;;;113.20;63.92;;;12.60;99.90;;;;;;5051522;28;20025;-81
2021/03/31 07:31:22;;;;;;;116.00;65.75;;;12.70;98.60;;;;;;5054888;28;20071;-79
2021/03/31 07:33:58;;;;;;;120.75;73.80;;;12.90;99.90;;;;;;5054367;28;20048;-79
2021/03/31 07:36:24;;;;;;;137.55;80.47;;;13.10;99.20;;;;;;5053385;28;20023;-76
2021/03/31 07:38:51;;;;;;;123.22;70.88;;;13.30;94.50;;;;;;5054056;28;20116;-77
2021/03/31 07:41:18;;;;;;;117.80;70.38;;;13.40;89.50;;;;;;5052842;28;20087;-77
2021/03/31 07:43:45;;;;;;;109.15;62.60;;;13.40;87.40;;;;;;5054070;28;20033;-77
2021/03/31 07:46:18;;;;;;;107.45;62.15;;;13.60;86.60;;;;;;5053346;28;20025;-77
2021/03/31 07:48:44;;;;;;;99.45;55.17;;;13.60;84.80;;;;;;5055120;28;20063;-77
2021/03/31 07:51:21;;;;;;;96.53;55.30;;;13.80;84.40;;;;;;5051817;28;20031;-75
2021/03/31 07:53:49;;;;;;;89.63;49.95;;;14.00;84.50;;;;;;5050572;28;20021;-76
2021/03/31 07:56:22;;;;;;;82.97;49.58;;;14.10;82.30;;;;;;5054796;28;20021;-74
2021/03/31 07:59:09;;;;;;;84.72;49.30;;;14.30;82.50;;;;;;5052277;28;20372;-75
2021/03/31 08:01:43;;;;;;;77.18;44.65;;;14.50;81.10;;;;;;5047633;28;20067;-74
2021/03/31 08:04:10;;;;;;;74.63;42.53;;;14.60;77.90;;;;;;5052921;28;20025;-75
2021/03/31 08:06:38;;;;;;;78.85;42.35;;;14.60;76.90;;;;;;5069761;28;20132;-74
2021/03/31 08:09:18;;;;;;;70.70;42.10;;;14.80;76.90;;;;;;5052837;28;20386;-75
2021/03/31 08:11:46;;;;;;;73.25;41.45;;;14.90;76.20;;;;;;5063219;28;20025;-75
2021/03/31 08:14:34;;;;;;;66.85;39.67;;;15.10;75.90;;;;;;5042602;28;20033;-75
2021/03/31 08:17:03;;;;;;;56.47;36.47;;;15.30;75.70;;;;;;5049581;28;20478;-75
2021/03/31 08:19:32;;;;;;;58.83;34.90;;;15.50;76.30;;;;;;5045453;28;20112;-75
2021/03/31 08:22:17;;;;;;;54.00;30.70;;;15.60;73.40;;;;;;5048569;28;20020;-82
2021/03/31 08:24:45;;;;;;;59.50;34.90;;;15.80;72.50;;;;;;5053423;28;20390;-78
2021/03/31 08:27:12;;;;;;;50.60;30.75;;;15.90;70.60;;;;;;5054202;28;20037;-78
2021/03/31 08:29:39;;;;;;;53.63;28.98;;;16.00;70.90;;;;;;5051694;28;20112;-75
2021/03/31 08:32:11;;;;;;;43.15;28.77;;;16.20;70.50;;;;;;5052508;28;20025;-76
2021/03/31 08:34:38;;;;;;;50.97;26.90;;;16.30;70.30;;;;;;5050763;28;20037;-81
2021/03/31 08:37:06;;;;;;;52.30;27.52;;;16.50;69.70;;;;;;5050854;28;20028;-80
2021/03/31 08:39:32;;;;;;;44.15;26.05;;;16.70;69.60;;;;;;5052883;28;20083;-81
2021/03/31 08:41:59;;;;;;;41.13;25.00;;;16.80;69.00;;;;;;5052592;28;20079;-81
2021/03/31 08:44:29;;;;;;;36.92;21.52;;;16.90;68.00;;;;;;5053719;28;20474;-81
2021/03/31 08:47:06;;;;;;;43.35;24.73;;;17.10;66.10;;;;;;5053705;28;20045;-80
2021/03/31 08:49:32;;;;;;;41.13;22.25;;;17.20;67.10;;;;;;5053863;28;20112;-79
2021/03/31 08:52:05;;;;;;;40.42;23.40;;;17.20;64.70;;;;;;5054131;28;20479;-80
2021/03/31 08:54:37;;;;;;;40.05;22.10;;;17.30;65.30;;;;;;5052318;28;20021;-80
2021/03/31 08:57:09;;;;;;;31.67;18.50;;;17.40;65.10;;;;;;5052517;28;20045;-80
2021/03/31 08:59:38;;;;;;;35.85;20.67;;;17.40;63.80;;;;;;5054016;28;20359;-81
2021/03/31 09:02:05;;;;;;;38.70;21.77;;;17.50;64.80;;;;;;5053944;28;20025;-81
2021/03/31 09:04:32;;;;;;;34.95;21.25;;;17.50;63.70;;;;;;5052508;28;20032;-81
2021/03/31 09:06:59;;;;;;;40.97;23.15;;;17.60;65.80;;;;;;5052611;28;20048;-81
2021/03/31 09:09:40;;;;;;;39.10;22.98;;;17.70;66.30;;;;;;5053755;28;20025;-80
2021/03/31 09:12:09;;;;;;;35.50;21.88;;;17.70;66.00;;;;;;5052157;28;20048;-81
2021/03/31 09:14:37;;;;;;;41.17;23.77;;;17.90;66.70;;;;;;5053216;28;20017;-81
2021/03/31 09:17:05;;;;;;;39.90;23.40;;;17.90;66.00;;;;;;5053671;28;20032;-82
2021/03/31 09:19:36;;;;;;;35.42;22.02;;;17.90;64.70;;;;;;5053441;28;20017;-81
2021/03/31 09:22:15;;;;;;;39.63;22.77;;;18.00;66.40;;;;;;5053054;28;20031;-81
2021/03/31 09:24:44;;;;;;;37.45;20.17;;;18.10;66.40;;;;;;5051637;28;20469;-81
2021/03/31 09:27:33;;;;;;;32.63;20.70;;;18.20;66.10;;;;;;5050215;28;20612;-81
2021/03/31 09:30:08;;;;;;;30.73;19.08;;;18.20;63.90;;;;;;5053797;28;20021;-81
2021/03/31 09:32:36;;;;;;;31.17;18.50;;;18.10;63.10;;;;;;5053897;28;20021;-81
2021/03/31 09:35:09;;;;;;;31.30;18.27;;;18.20;64.00;;;;;;5053484;28;20406;-81
2021/03/31 09:37:45;;;;;;;28.50;17.48;;;18.20;63.80;;;;;;5053076;28;20025;-82
2021/03/31 09:40:21;;;;;;;32.72;16.13;;;18.30;65.10;;;;;;5051915;28;20083;-82
2021/03/31 09:42:57;;;;;;;30.88;18.40;;;18.40;63.10;;;;;;5052194;28;20055;-81
2021/03/31 09:45:31;;;;;;;26.58;17.50;;;18.50;61.60;;;;;;5053300;28;20067;-81
2021/03/31 09:47:58;;;;;;;26.10;16.58;;;18.60;61.50;;;;;;5053186;28;20390;-81
2021/03/31 09:50:25;;;;;;;23.98;14.43;;;18.60;60.80;;;;;;5053158;28;20017;-82
2021/03/31 09:53:01;;;;;;;25.70;14.77;;;18.70;61.30;;;;;;5051924;28;20095;-81
2021/03/31 09:55:29;;;;;;;27.13;13.48;;;18.60;60.00;;;;;;5051838;28;20071;-82
2021/03/31 09:57:56;;;;;;;18.40;13.23;;;18.80;61.80;;;;;;5053265;28;20104;-82
2021/03/31 10:00:24;;;;;;;21.20;12.52;;;18.90;60.30;;;;;;5052746;28;20083;-82
2021/03/31 10:02:51;;;;;;;20.30;13.65;;;19.10;61.10;;;;;;5053192;28;20025;-82
2021/03/31 10:05:22;;;;;;;19.65;13.40;;;19.20;61.20;;;;;;5051672;28;20024;-82
2021/03/31 10:08:06;;;;;;;23.70;12.93;;;19.30;59.90;;;;;;5051706;28;20074;-81
2021/03/31 10:10:54;;;;;;;19.05;13.02;;;19.20;58.60;;;;;;5052909;28;20032;-82
2021/03/31 10:13:22;;;;;;;21.80;11.90;;;19.20;58.40;;;;;;5052992;28;20078;-81
2021/03/31 10:15:59;;;;;;;25.30;15.43;;;19.30;57.60;;;;;;5051692;28;20071;-81
2021/03/31 10:18:27;;;;;;;22.17;14.40;;;19.40;58.30;;;;;;5052861;28;20049;-82
2021/03/31 10:20:57;;;;;;;24.17;14.43;;;19.40;58.70;;;;;;5052960;28;20025;-82
2021/03/31 10:23:35;;;;;;;22.38;13.35;;;19.50;58.00;;;;;;5051797;28;20025;-82
2021/03/31 10:26:19;;;;;;;20.85;13.13;;;19.60;59.40;;;;;;5052762;28;20032;-82
2021/03/31 10:28:44;;;;;;;20.67;14.05;;;19.70;57.20;;;;;;5051264;28;20029;-82
2021/03/31 10:31:36;;;;;;;25.48;16.45;;;19.70;55.90;;;;;;5052745;28;20466;-82
2021/03/31 10:34:03;;;;;;;19.73;14.20;;;19.70;54.70;;;;;;5052812;28;20024;-82
2021/03/31 10:36:46;;;;;;;25.30;14.75;;;19.60;55.30;;;;;;5052690;28;20075;-83
2021/03/31 10:47:52;;;;;;;23.73;13.98;;;19.70;55.80;;;;;;5052535;28;20442;-82
2021/03/31 10:50:15;;;;;;;25.08;14.43;;;19.90;56.60;;;;;;5051232;28;20036;-82
2021/03/31 10:52:51;;;;;;;22.05;14.18;;;20.00;56.10;;;;;;5051275;28;20029;-82
2021/03/31 10:55:16;;;;;;;23.30;14.32;;;20.10;55.20;;;;;;5052547;28;20033;-83
2021/03/31 10:57:43;;;;;;;23.92;15.25;;;20.20;55.80;;;;;;5052349;28;20033;-83
2021/03/31 11:00:09;;;;;;;29.10;15.02;;;20.20;54.10;;;;;;5052084;28;20078;-83
2021/03/31 11:02:34;;;;;;;25.67;14.57;;;20.20;54.00;;;;;;5052090;28;20017;-83
2021/03/31 11:05:00;;;;;;;24.13;13.20;;;20.30;55.40;;;;;;5055303;28;20398;-84
2021/03/31 11:07:26;;;;;;;26.17;13.50;;;20.30;54.60;;;;;;5054461;28;20068;-84
2021/03/31 11:09:52;;;;;;;22.98;13.38;;;20.50;55.80;;;;;;5055470;28;20017;-82
2021/03/31 11:12:17;;;;;;;21.33;13.23;;;20.70;55.10;;;;;;5049327;28;20378;-83
2021/03/31 11:14:43;;;;;;;23.23;14.05;;;20.70;53.90;;;;;;5044329;28;20402;-83
2021/03/31 11:17:19;;;;;;;23.15;12.70;;;20.70;53.10;;;;;;5045148;28;20021;-83
2021/03/31 11:27:56;;;;;;;23.08;12.52;;;20.90;52.60;;;;;;5055797;28;20493;-84
2021/03/31 11:30:22;;;;;;;23.52;12.45;;;21.00;53.10;;;;;;5055586;28;20103;-83
2021/03/31 11:32:47;;;;;;;22.60;12.95;;;21.10;52.50;;;;;;5056013;28;20025;-83
2021/03/31 11:35:13;;;;;;;20.95;11.90;;;21.10;52.70;;;;;;5055552;28;20036;-84
2021/03/31 11:37:39;;;;;;;19.33;11.20;;;21.20;53.10;;;;;;5055580;28;20032;-83
2021/03/31 11:40:06;;;;;;;16.27;11.27;;;21.20;52.40;;;;;;5055256;28;20025;-83
2021/03/31 11:42:32;;;;;;;14.82;9.65;;;21.30;52.50;;;;;;5054407;28;20474;-84
2021/03/31 11:44:57;;;;;;;17.77;10.65;;;21.20;50.40;;;;;;5052243;28;20028;-83
2021/03/31 11:47:23;;;;;;;16.85;9.15;;;21.20;50.20;;;;;;5053008;28;20726;-83
2021/03/31 11:49:49;;;;;;;11.43;6.88;;;21.20;49.90;;;;;;5056238;28;20119;-84
2021/03/31 11:52:15;;;;;;;9.57;7.32;;;21.00;50.20;;;;;;5054010;28;20159;-82
2021/03/31 11:54:41;;;;;;;11.52;7.35;;;21.00;50.30;;;;;;5055339;28;20021;-84
2021/03/31 11:57:07;;;;;;;12.93;6.07;;;21.10;50.50;;;;;;5053965;28;20024;-85
2021/03/31 11:59:32;;;;;;;13.15;6.30;;;21.00;49.70;;;;;;5053218;28;20025;-84
2021/03/31 12:01:58;;;;;;;13.75;7.35;;;20.90;49.40;;;;;;5053466;28;20025;-84
2021/03/31 12:04:24;;;;;;;13.07;7.35;;;20.90;49.40;;;;;;5051955;28;20032;-83
2021/03/31 12:06:49;;;;;;;13.95;8.35;;;20.80;49.80;;;;;;5054611;28;20039;-82
2021/03/31 12:09:15;;;;;;;17.02;10.75;;;20.80;50.20;;;;;;5055181;28;20055;-84
2021/03/31 12:11:41;;;;;;;14.70;9.70;;;20.80;49.60;;;;;;5055222;28;20402;-84
2021/03/31 12:14:07;;;;;;;17.52;10.60;;;20.90;49.70;;;;;;5054444;28;20445;-83
2021/03/31 12:16:32;;;;;;;17.83;10.93;;;21.00;50.20;;;;;;5053845;28;20474;-83
2021/03/31 12:18:58;;;;;;;19.13;10.68;;;21.20;50.50;;;;;;5055053;28;20462;-84
2021/03/31 12:21:24;;;;;;;16.55;10.90;;;21.20;49.80;;;;;;5054897;28;20075;-83
2021/03/31 12:23:49;;;;;;;16.83;10.55;;;21.20;48.60;;;;;;5053657;28;20463;-84
2021/03/31 12:26:16;;;;;;;17.88;10.68;;;21.20;47.70;;;;;;5054768;28;20024;-84
2021/03/31 12:28:49;;;;;;;15.68;9.68;;;21.20;48.70;;;;;;5054841;28;20032;-83
2021/03/31 12:31:15;;;;;;;17.13;9.68;;;21.50;49.70;;;;;;5054471;28;20075;-84
2021/03/31 12:33:41;;;;;;;14.90;8.45;;;21.50;48.90;;;;;;5053462;28;20073;-83
2021/03/31 12:36:07;;;;;;;12.45;8.73;;;21.40;47.40;;;;;;5053276;28;20050;-84
2021/03/31 12:38:32;;;;;;;15.57;10.18;;;21.50;48.50;;;;;;5053425;28;20078;-83
2021/03/31 12:40:58;;;;;;;15.77;10.15;;;21.50;48.00;;;;;;5053375;28;20539;-84
2021/03/31 12:43:24;;;;;;;18.35;10.52;;;21.40;47.10;;;;;;5052970;28;20047;-84
2021/03/31 12:45:49;;;;;;;20.10;10.68;;;21.40;46.90;;;;;;5052844;28;20033;-84
2021/03/31 12:48:15;;;;;;;14.48;9.80;;;21.40;47.30;;;;;;5052851;28;20041;-84
2021/03/31 12:50:42;;;;;;;14.60;10.57;;;21.40;47.60;;;;;;5053115;28;20115;-84
2021/03/31 12:53:33;;;;;;;17.27;9.57;;;21.40;47.40;;;;;;5052785;28;20028;-84
2021/03/31 12:55:55;;;;;;;17.30;11.32;;;21.40;47.30;;;;;;5053845;28;20029;-85
2021/03/31 12:58:22;;;;;;;17.60;10.82;;;21.40;47.40;;;;;;5069353;28;20067;-84
2021/03/31 13:00:51;;;;;;;21.42;11.98;;;21.40;47.20;;;;;;5052846;28;20112;-84